Time,TemperatureF,DewpointF,PressureIn,WindDirection,WindDirectionDegrees,WindSpeedMPH,WindSpeedGustMPH,Humidity,HourlyPrecipIn,Conditions,Clouds,dailyrainin,SoftwareType,DateUTC
2013-05-29 00:00:00,75.7,70.2,29.86,SSE,158,5.0,15.0,83,0.00,,SKC,0.00,VWS V14.01,2013-05-29 05:00:00,
2013-05-29 00:30:00,75.7,69.8,29.86,SSE,158,5.0,15.0,82,0.00,,SKC,0.00,VWS V14.01,2013-05-29 05:30:00,
2013-05-29 01:00:00,75.5,70.0,29.90,SSE,158,2.0,7.0,83,0.00,,SKC,0.00,VWS V14.01,2013-05-29 06:00:00,
2013-05-29 01:30:00,75.2,69.7,29.88,SSE,158,3.0,11.0,83,0.00,,SKC,0.00,VWS V14.01,2013-05-29 06:30:00,
2013-05-29 02:00:00,75.0,69.5,29.88,SSE,158,4.0,11.0,83,0.00,,SKC,0.00,VWS V14.01,2013-05-29 07:00:00,
2013-05-29 02:30:00,74.8,69.7,29.88,SSE,158,3.0,10.0,84,0.00,,SKC,0.00,VWS V14.01,2013-05-29 07:30:00,
2013-05-29 03:00:00,74.6,69.4,29.85,SSE,158,4.0,13.0,84,0.00,,SKC,0.00,VWS V14.01,2013-05-29 08:00:00,
2013-05-29 03:30:00,74.0,69.2,29.83,SSE,158,5.0,13.0,85,0.00,,SKC,0.00,VWS V14.01,2013-05-29 08:30:00,
2013-05-29 04:00:00,73.6,69.5,29.81,SSE,158,5.0,13.0,87,0.00,,SKC,0.00,VWS V14.01,2013-05-29 09:00:00,
2013-05-29 04:30:00,73.4,69.6,29.81,SSE,158,6.0,14.0,88,0.00,,SKC,0.00,VWS V14.01,2013-05-29 09:30:00,
2013-05-29 05:00:00,73.3,69.9,29.80,SSE,158,7.0,19.0,89,0.00,,SKC,0.00,VWS V14.01,2013-05-29 10:00:00,
2013-05-29 05:30:00,73.5,70.1,29.81,SSE,158,6.0,14.0,89,0.00,,SKC,0.00,VWS V14.01,2013-05-29 10:30:00,
2013-05-29 06:00:00,73.7,70.3,29.79,SSE,158,7.0,20.0,89,0.00,,SKC,0.00,VWS V14.01,2013-05-29 11:00:00,
2013-05-29 06:30:00,73.6,70.5,29.78,SSE,158,9.0,24.0,90,0.00,,SKC,0.00,VWS V14.01,2013-05-29 11:30:00,
2013-05-29 07:00:00,73.5,70.7,29.76,SSE,158,8.0,24.0,91,0.00,,SKC,0.00,VWS V14.01,2013-05-29 12:00:00,
2013-05-29 07:30:00,73.6,70.8,29.78,SSE,158,8.0,20.0,91,0.00,,SKC,0.00,VWS V14.01,2013-05-29 12:30:00,
2013-05-29 08:00:00,73.9,70.8,29.75,SSE,158,9.0,27.0,90,0.00,,SKC,0.00,VWS V14.01,2013-05-29 13:00:00,
2013-05-29 08:30:00,74.1,70.7,29.72,SSE,158,11.0,23.0,89,0.00,,SKC,0.00,VWS V14.01,2013-05-29 13:30:00,
2013-05-29 09:00:00,74.6,70.8,29.77,SSW,202,7.0,23.0,88,0.00,,SKC,0.00,VWS V14.01,2013-05-29 14:00:00,
2013-05-29 09:30:00,75.2,70.7,29.78,SSE,158,8.0,22.0,86,0.00,,SKC,0.00,VWS V14.01,2013-05-29 14:30:00,
2013-05-29 10:00:00,75.8,71.3,29.77,SSE,158,8.0,20.0,86,0.00,,SKC,0.00,VWS V14.01,2013-05-29 15:00:00,
2013-05-29 10:30:00,76.1,71.3,29.77,SSE,158,7.0,17.0,85,0.00,,SKC,0.00,VWS V14.01,2013-05-29 15:30:00,
2013-05-29 11:00:00,76.4,71.2,29.78,SSE,158,8.0,20.0,84,0.00,,SKC,0.00,VWS V14.01,2013-05-29 16:00:00,
2013-05-29 11:30:00,77.4,71.8,29.78,SSE,158,6.0,16.0,83,0.00,,SKC,0.00,VWS V14.01,2013-05-29 16:30:00,
2013-05-29 12:00:00,78.0,71.7,29.79,SSE,158,6.0,16.0,81,0.00,,SKC,0.00,VWS V14.01,2013-05-29 17:00:00,
2013-05-29 12:30:00,78.2,72.3,29.78,SSE,158,6.0,18.0,82,0.00,,SKC,0.00,VWS V14.01,2013-05-29 17:30:00,
2013-05-29 13:00:00,79.2,71.8,29.78,SSE,158,8.0,20.0,78,0.00,,SKC,0.00,VWS V14.01,2013-05-29 18:00:00,
2013-05-29 13:30:00,78.8,72.1,29.77,SSE,158,7.0,17.0,80,0.00,,SKC,0.00,VWS V14.01,2013-05-29 18:30:00,
2013-05-29 14:00:00,80.7,72.4,29.76,SSE,158,7.0,18.0,76,0.00,,SKC,0.00,VWS V14.01,2013-05-29 19:00:00,
2013-05-29 14:30:00,82.1,72.2,29.75,SSE,158,7.0,19.0,72,0.00,,SKC,0.00,VWS V14.01,2013-05-29 19:30:00,
2013-05-29 15:00:00,82.8,72.0,29.75,SSE,158,9.0,24.0,70,0.00,,SKC,0.00,VWS V14.01,2013-05-29 20:00:00,
2013-05-29 15:30:00,82.8,72.4,29.74,SSE,158,7.0,17.0,71,0.00,,SKC,0.00,VWS V14.01,2013-05-29 20:30:00,
2013-05-29 16:00:00,83.8,72.6,29.73,SSE,158,9.0,21.0,69,0.00,,SKC,0.00,VWS V14.01,2013-05-29 21:00:00,
2013-05-29 16:30:00,82.9,72.9,29.73,SSE,158,7.0,19.0,72,0.00,,SKC,0.00,VWS V14.01,2013-05-29 21:30:00,
2013-05-29 17:00:00,81.9,72.4,29.72,SSE,158,8.0,19.0,73,0.00,,SKC,0.00,VWS V14.01,2013-05-29 22:00:00,
2013-05-29 17:30:00,81.9,72.8,29.71,SSE,158,8.0,22.0,74,0.00,,SKC,0.00,VWS V14.01,2013-05-29 22:30:00,
2013-05-29 18:00:00,81.3,72.6,29.71,SSE,158,10.0,22.0,75,0.00,,SKC,0.00,VWS V14.01,2013-05-29 23:00:00,
2013-05-29 18:30:00,81.0,72.3,29.72,SSE,158,8.0,23.0,75,0.00,,SKC,0.00,VWS V14.01,2013-05-29 23:30:00,
2013-05-29 19:00:00,80.7,72.4,29.71,SSE,158,8.0,23.0,76,0.00,,SKC,0.00,VWS V14.01,2013-05-30 00:00:00,
2013-05-29 19:30:00,80.4,72.2,29.72,SE,135,7.0,23.0,76,0.00,,SKC,0.00,VWS V14.01,2013-05-30 00:30:00,
2013-05-29 20:00:00,79.9,71.3,29.72,SSE,158,8.0,22.0,75,0.00,,SKC,0.00,VWS V14.01,2013-05-30 01:00:00,
2013-05-29 20:30:00,79.5,71.7,29.72,SSE,158,7.0,21.0,77,0.00,,SKC,0.00,VWS V14.01,2013-05-30 01:30:00,
2013-05-29 21:00:00,78.5,71.4,29.74,SE,135,8.0,19.0,79,0.00,,SKC,0.00,VWS V14.01,2013-05-30 02:00:00,
2013-05-29 21:30:00,77.9,71.6,29.75,SSE,158,7.0,19.0,81,0.00,,SKC,0.00,VWS V14.01,2013-05-30 02:30:00,
2013-05-29 22:00:00,77.5,71.2,29.75,SE,135,7.0,21.0,81,0.00,,SKC,0.00,VWS V14.01,2013-05-30 03:00:00,
2013-05-29 22:30:00,76.7,71.2,29.77,SSE,158,8.0,19.0,83,0.00,,SKC,0.00,VWS V14.01,2013-05-30 03:30:00,
2013-05-29 23:00:00,76.1,70.9,29.77,SSE,158,8.0,18.0,84,0.00,,SKC,0.00,VWS V14.01,2013-05-30 04:00:00,
2013-05-29 23:30:00,75.7,71.2,29.78,SSE,158,9.0,23.0,86,0.00,,SKC,0.00,VWS V14.01,2013-05-30 04:30:00,